createdAt,value
2023-02-22T00:02:10.822Z,101464.22
2023-02-22T00:04:39.746Z,101446.66
2023-02-22T00:07:06.727Z,101469.69
2023-02-22T00:09:33.485Z,101470.53
2023-02-22T00:12:00.358Z,101466.34
2023-02-22T00:14:27.561Z,101464.53
2023-02-22T00:16:59.992Z,101460.38
2023-02-22T00:19:28.140Z,101462.19
2023-02-22T00:22:00.149Z,101453.41
2023-02-22T00:24:26.932Z,101463.50
2023-02-22T00:26:55.792Z,101460.03
2023-02-22T00:29:23.437Z,101461.00
2023-02-22T00:31:50.347Z,101458.84
2023-02-22T00:34:17.770Z,101458.84
2023-02-22T00:36:48.321Z,101457.03
2023-02-22T00:39:16.851Z,101459.97
2023-02-22T00:41:44.322Z,101452.50
2023-02-22T00:44:11.736Z,101456.81
2023-02-22T00:46:38.528Z,101456.81
2023-02-22T00:49:05.349Z,101453.16
2023-02-22T00:51:33.885Z,101447.06
2023-02-22T00:54:00.648Z,101449.84
2023-02-22T00:56:28.840Z,101455.16
2023-02-22T00:58:55.685Z,101447.06
2023-02-22T01:01:24.193Z,101453.16
2023-02-22T01:03:51.114Z,101447.06
2023-02-22T01:06:18.099Z,101448.88
2023-02-22T01:08:45.911Z,101446.22
2023-02-22T01:11:13.531Z,101435.94
2023-02-22T01:13:42.001Z,101436.59
2023-02-22T01:16:08.872Z,101429.63
2023-02-22T01:18:39.853Z,101426.31
2023-02-22T01:21:07.070Z,101429.09
2023-02-22T01:23:33.932Z,101425.47
2023-02-22T01:26:00.867Z,101424.81
2023-02-22T01:28:29.152Z,101420.50
2023-02-22T01:30:57.606Z,101420.31
2023-02-22T01:33:25.635Z,101416.88
2023-02-22T01:35:52.532Z,101416.88
2023-02-22T01:38:19.364Z,101415.34
2023-02-22T01:40:48.469Z,101416.50
2023-02-22T01:43:19.423Z,101412.34
2023-02-22T01:46:02.289Z,101406.88
2023-02-22T01:48:42.260Z,101401.75
2023-02-22T01:51:12.768Z,101407.88
2023-02-22T01:53:47.519Z,101404.41
2023-02-22T01:56:16.196Z,101393.81
2023-02-22T01:58:48.570Z,101391.63
2023-02-22T02:01:19.201Z,101394.09
2023-02-22T02:03:46.367Z,101393.44
2023-02-22T02:06:14.901Z,101386.47
2023-02-22T02:08:51.769Z,101390.97
2023-02-22T02:11:22.178Z,101390.97
2023-02-22T02:13:51.812Z,101394.59
2023-02-22T02:16:21.890Z,101384.28
2023-02-22T02:18:49.153Z,101383.47
2023-02-22T02:21:40.736Z,101380.13
2023-02-22T02:24:40.467Z,101372.38
2023-02-22T02:27:18.134Z,101368.72
2023-02-22T02:30:22.481Z,101373.84
2023-02-22T02:32:55.575Z,101373.19
2023-02-22T02:35:35.666Z,101361.91
2023-02-22T02:38:10.919Z,101370.03
2023-02-22T02:40:47.327Z,101356.91
2023-02-22T02:43:23.678Z,101356.09
2023-02-22T02:45:58.823Z,101349.16
2023-02-22T02:48:29.064Z,101352.47
2023-02-22T02:50:59.364Z,101346.31
2023-02-22T02:53:31.523Z,101348.31
2023-02-22T02:55:59.070Z,101344.16
2023-02-22T02:58:26.613Z,101336.22
2023-02-22T03:00:56.909Z,101329.25
2023-02-22T03:03:41.521Z,101331.06
2023-02-22T03:06:42.205Z,101333.88
2023-02-22T03:09:19.992Z,101331.41
2023-02-22T03:11:59.734Z,101331.53
2023-02-22T03:14:35.257Z,101328.19
2023-02-22T03:17:08.884Z,101333.47
2023-02-22T03:19:40.694Z,101325.53
2023-02-22T03:22:10.694Z,101322.06
2023-02-22T03:24:42.449Z,101324.03
2023-02-22T03:27:14.508Z,101321.72
2023-02-22T03:29:45.320Z,101320.03
2023-02-22T03:32:17.088Z,101320.19
2023-02-22T03:34:52.672Z,101325.00
2023-02-22T03:37:23.369Z,101316.38
2023-02-22T03:39:54.157Z,101318.03
2023-02-22T03:42:24.138Z,101318.31
2023-02-22T03:44:55.259Z,101321.81
2023-02-22T03:47:28.508Z,101315.03
2023-02-22T03:50:01.975Z,101315.03
2023-02-22T03:52:28.972Z,101313.38
2023-02-22T03:54:55.843Z,101310.03
2023-02-22T03:57:30.933Z,101311.00
2023-02-22T03:59:57.755Z,101312.19
2023-02-22T04:02:24.561Z,101306.06
2023-02-22T04:04:51.560Z,101297.41
2023-02-22T04:07:19.797Z,101299.38
2023-02-22T04:09:46.783Z,101298.72
2023-02-22T04:12:13.586Z,101299.88
2023-02-22T04:14:40.575Z,101290.13
2023-02-22T04:17:07.456Z,101285.81
2023-02-22T04:19:35.971Z,101286.94
2023-02-22T04:22:03.141Z,101289.44
2023-02-22T04:24:31.289Z,101288.75
2023-02-22T04:26:58.245Z,101288.09
2023-02-22T04:29:25.076Z,101283.94
2023-02-22T04:31:52.652Z,101290.34
2023-02-22T04:34:19.369Z,101285.91
2023-02-22T04:36:46.421Z,101281.56
2023-02-22T04:39:13.194Z,101286.22
2023-02-22T04:42:00.130Z,101280.09
2023-02-22T04:44:26.915Z,101270.63
2023-02-22T04:46:53.836Z,101276.91
2023-02-22T04:49:20.720Z,101273.44
2023-02-22T04:51:47.531Z,101266.47
2023-02-22T04:54:14.557Z,101266.94
2023-02-22T04:56:41.471Z,101258.19
2023-02-22T04:59:09.700Z,101254.84
2023-02-22T05:01:37.880Z,101254.19
2023-02-22T05:04:05.551Z,101249.06
2023-02-22T05:06:32.439Z,101251.72
2023-02-22T05:08:59.407Z,101253.66
2023-02-22T05:11:26.320Z,101250.19
2023-02-22T05:13:53.088Z,101240.59
2023-02-22T05:16:21.502Z,101242.56
2023-02-22T05:18:48.378Z,101240.09
2023-02-22T05:21:15.373Z,101235.41
2023-02-22T05:23:42.406Z,101233.75
2023-02-22T05:26:11.643Z,101232.91
2023-02-22T05:28:38.833Z,101231.25
2023-02-22T05:31:07.372Z,101228.59
2023-02-22T05:33:43.128Z,101222.63
2023-02-22T05:36:10.249Z,101221.16
2023-02-22T05:38:43.528Z,101219.63
2023-02-22T05:41:11.454Z,101219.78
2023-02-22T05:43:41.932Z,101215.47
2023-02-22T05:46:09.075Z,101219.97
2023-02-22T05:48:37.298Z,101220.94
2023-02-22T05:51:04.494Z,101216.63
2023-02-22T05:53:31.282Z,101208.00
2023-02-22T05:55:58.084Z,101202.88
2023-02-22T05:58:24.818Z,101206.34
2023-02-22T06:00:51.694Z,101194.78
2023-02-22T06:03:18.532Z,101199.94
2023-02-22T06:05:46.992Z,101201.25
2023-02-22T06:08:13.862Z,101209.38
2023-02-22T06:10:41.072Z,101208.38
2023-02-22T06:13:07.812Z,101202.94
2023-02-22T06:15:34.601Z,101195.16
2023-02-22T06:18:02.290Z,101200.75
2023-02-22T06:20:31.417Z,101201.75
2023-02-22T06:22:59.694Z,101199.38
2023-02-22T06:25:28.091Z,101195.25
2023-02-22T06:27:54.985Z,101204.84
2023-02-22T06:30:23.020Z,101195.25
2023-02-22T06:32:50.261Z,101207.66
2023-02-22T06:35:17.413Z,101210.28
2023-02-22T06:37:44.601Z,101201.53
2023-02-22T06:40:13.498Z,101203.19
2023-02-22T06:42:40.855Z,101202.34
2023-02-22T06:45:08.725Z,101198.88
2023-02-22T06:47:39.588Z,101188.31
2023-02-22T06:50:07.213Z,101197.75
2023-02-22T06:52:34.079Z,101191.31
2023-02-22T06:55:01.120Z,101174.59
2023-02-22T06:57:29.475Z,101175.59
2023-02-22T06:59:56.254Z,101178.56
2023-02-22T07:02:23.128Z,101180.53
2023-02-22T07:04:50.032Z,101180.38
2023-02-22T07:07:22.657Z,101183.84
2023-02-22T07:09:49.581Z,101192.75
2023-02-22T07:12:16.749Z,101184.97
2023-02-22T07:14:45.070Z,101175.22
2023-02-22T07:17:11.958Z,101175.09
2023-02-22T07:19:39.047Z,101176.59
2023-02-22T07:22:06.184Z,101182.03
2023-02-22T07:24:35.104Z,101185.19
2023-02-22T07:27:02.685Z,101187.84
2023-02-22T07:29:32.345Z,101183.22
2023-02-22T07:32:00.542Z,101186.03
2023-02-22T07:34:27.356Z,101171.81
2023-02-22T07:36:54.421Z,101181.41
2023-02-22T07:39:21.093Z,101180.59
2023-02-22T07:41:48.065Z,101181.28
2023-02-22T07:44:15.311Z,101186.56
2023-02-22T07:46:42.164Z,101193.50
2023-02-22T07:49:10.473Z,101184.56
2023-02-22T07:51:37.369Z,101184.41
2023-02-22T07:54:04.491Z,101180.94
2023-02-22T07:56:31.377Z,101179.13
2023-02-22T07:58:58.178Z,101183.44
2023-02-22T08:01:25.226Z,101183.44
2023-02-22T08:03:52.777Z,101185.94
2023-02-22T08:06:21.088Z,101183.44
2023-02-22T08:08:47.831Z,101184.78
2023-02-22T08:11:15.092Z,101180.31
2023-02-22T08:13:41.893Z,101183.63
2023-02-22T08:16:09.194Z,101182.50
2023-02-22T08:18:38.273Z,101186.63
2023-02-22T08:21:05.578Z,101182.03
2023-02-22T08:23:34.458Z,101188.69
2023-02-22T08:26:07.019Z,101185.72
2023-02-22T08:28:33.811Z,101182.09
2023-02-22T08:31:00.492Z,101173.16
2023-02-22T08:33:27.468Z,101181.09
2023-02-22T08:35:54.818Z,101168.72
2023-02-22T08:38:23.682Z,101166.06
2023-02-22T08:40:52.141Z,101174.66
2023-02-22T08:43:20.074Z,101177.81
2023-02-22T08:45:48.175Z,101176.00
2023-02-22T08:48:16.617Z,101191.75
2023-02-22T08:50:44.518Z,101196.53
2023-02-22T08:53:13.784Z,101194.59
2023-02-22T08:55:41.836Z,101196.25
2023-02-22T08:58:10.687Z,101191.44
2023-02-22T09:00:39.057Z,101192.97
2023-02-22T09:03:07.461Z,101189.97
2023-02-22T09:05:34.187Z,101188.84
2023-02-22T09:08:02.104Z,101178.09
2023-02-22T09:10:32.152Z,101171.66
2023-02-22T09:13:00.949Z,101170.50
2023-02-22T09:15:30.323Z,101174.66
2023-02-22T09:17:57.213Z,101166.38
2023-02-22T09:20:25.190Z,101157.47
2023-02-22T09:22:52.344Z,101149.53
2023-02-22T09:25:22.209Z,101151.19
2023-02-22T09:27:49.921Z,101129.69
2023-02-22T09:30:19.074Z,101139.13
2023-02-22T09:32:47.619Z,101124.41
2023-02-22T09:35:14.476Z,101123.09
2023-02-22T09:37:45.048Z,101138.66
2023-02-22T09:40:17.706Z,101140.00
2023-02-22T09:42:53.345Z,101138.88
2023-02-22T09:45:23.467Z,101133.25
2023-02-22T09:47:57.673Z,101137.41
2023-02-22T09:50:29.206Z,101135.91
2023-02-22T09:53:05.132Z,101120.69
2023-02-22T09:55:39.391Z,101124.34
2023-02-22T09:58:16.249Z,101127.50
2023-02-22T10:00:45.694Z,101127.81
2023-02-22T10:03:22.869Z,101124.69
2023-02-22T10:05:54.557Z,101119.25
2023-02-22T10:08:21.792Z,101127.50
2023-02-22T10:11:01.452Z,101128.19
2023-02-22T10:13:42.177Z,101125.19
2023-02-22T10:16:16.412Z,101121.38
2023-02-22T10:19:08.222Z,101118.22
2023-02-22T10:22:04.956Z,101119.56
2023-02-22T10:24:42.669Z,101124.38
2023-02-22T10:27:16.323Z,101127.69
2023-02-22T10:29:46.756Z,101118.56
2023-02-22T10:32:20.300Z,101121.72
2023-02-22T10:34:51.644Z,101117.06
2023-02-22T10:37:26.080Z,101106.13
2023-02-22T10:39:59.180Z,101103.97
2023-02-22T10:42:27.900Z,101089.53
2023-02-22T10:44:54.856Z,101091.69
2023-02-22T10:47:22.214Z,101090.50
2023-02-22T10:49:55.834Z,101080.25
2023-02-22T10:52:26.174Z,101092.00
2023-02-22T10:55:13.599Z,101084.34
2023-02-22T10:57:44.479Z,101076.69
2023-02-22T11:00:21.068Z,101075.38
2023-02-22T11:02:53.806Z,101069.72
2023-02-22T11:05:36.790Z,101071.66
2023-02-22T11:08:28.127Z,101070.34
2023-02-22T11:10:56.707Z,101069.00
2023-02-22T11:13:29.490Z,101072.13
2023-02-22T11:16:00.233Z,101074.25
2023-02-22T11:18:30.408Z,101071.13
2023-02-22T11:21:05.121Z,101072.25
2023-02-22T11:23:32.392Z,101074.53
2023-02-22T11:26:07.379Z,101071.19
2023-02-22T11:28:34.753Z,101073.50
2023-02-22T11:31:13.688Z,101078.13
2023-02-22T11:33:48.330Z,101065.13
2023-02-22T11:36:30.789Z,101055.00
2023-02-22T11:39:00.853Z,101066.91
2023-02-22T11:41:29.180Z,101058.44
2023-02-22T11:44:13.145Z,101057.94
2023-02-22T11:46:42.027Z,101052.06
2023-02-22T11:49:10.552Z,101051.72
2023-02-22T11:51:50.650Z,101061.00
2023-02-22T11:54:38.138Z,101057.00
2023-02-22T11:57:16.496Z,101044.16
2023-02-22T11:59:55.805Z,101040.34
2023-02-22T12:02:56.861Z,101044.31
2023-02-22T12:05:59.592Z,101033.31
2023-02-22T12:08:37.215Z,101031.13
2023-02-22T12:11:12.933Z,101029.94
2023-02-22T12:14:06.162Z,101034.91
2023-02-22T12:16:44.311Z,101025.53
2023-02-22T12:19:22.222Z,101020.88
2023-02-22T12:21:55.684Z,101021.34
2023-02-22T12:24:27.771Z,101020.81
2023-02-22T12:27:01.732Z,101016.78
2023-02-22T12:29:37.662Z,101011.56
2023-02-22T12:32:10.837Z,101012.03
2023-02-22T12:34:41.543Z,101006.97
2023-02-22T12:37:16.788Z,100999.47
2023-02-22T12:39:54.265Z,101001.59
2023-02-22T12:42:29.631Z,100992.22
2023-02-22T12:45:01.098Z,100986.19
2023-02-22T12:47:37.005Z,100983.97
2023-02-22T12:50:15.558Z,100981.78
2023-02-22T12:52:46.948Z,100978.56
2023-02-22T12:55:21.401Z,100982.47
2023-02-22T12:57:57.207Z,100973.13
2023-02-22T13:00:30.549Z,100975.41
2023-02-22T13:03:03.663Z,100979.38
2023-02-22T13:05:36.565Z,100987.78
2023-02-22T13:08:22.826Z,100982.94
2023-02-22T13:11:03.227Z,100990.53
2023-02-22T13:13:42.736Z,100994.66
2023-02-22T13:16:21.995Z,100996.16
2023-02-22T13:18:55.456Z,100994.09
2023-02-22T13:21:29.511Z,100984.28
2023-02-22T13:24:05.253Z,100995.56
2023-02-22T13:26:40.147Z,100996.22
2023-02-22T13:29:13.784Z,100996.00
2023-02-22T13:31:59.414Z,101001.16
2023-02-22T13:34:54.281Z,101008.31
2023-02-22T13:37:49.678Z,101002.81
2023-02-22T13:40:45.477Z,101003.63
2023-02-22T13:43:39.024Z,100997.31
2023-02-22T13:46:21.035Z,100988.50
2023-02-22T13:49:08.451Z,100992.81
2023-02-22T13:51:47.998Z,100990.78
2023-02-22T13:54:20.990Z,100982.81
2023-02-22T13:56:51.298Z,100982.81
2023-02-22T13:59:26.269Z,100973.78
2023-02-22T14:01:55.036Z,100968.44
2023-02-22T14:04:44.174Z,100976.44
2023-02-22T14:07:47.361Z,100974.59
2023-02-22T14:10:37.612Z,100983.41
2023-02-22T14:13:05.560Z,100983.41
2023-02-22T14:15:35.495Z,100983.41
2023-02-22T14:18:04.388Z,100974.59
2023-02-22T14:20:35.217Z,100981.75
2023-02-22T14:23:31.700Z,100991.41
2023-02-22T14:26:11.296Z,100988.94
2023-02-22T14:28:46.273Z,100983.59
2023-02-22T14:31:33.346Z,100988.13
2023-02-22T14:34:06.283Z,100979.31
2023-02-22T14:36:36.637Z,100971.50
2023-02-22T14:39:11.539Z,100978.66
2023-02-22T14:41:40.914Z,100978.84
2023-02-22T14:44:12.904Z,100982.53
2023-02-22T14:46:44.136Z,100982.53
2023-02-22T14:49:18.984Z,100984.56
2023-02-22T14:51:53.455Z,100993.34
2023-02-22T14:54:26.713Z,100990.06
2023-02-22T14:57:12.106Z,100998.25
2023-02-22T14:59:52.698Z,100995.75
2023-02-22T15:02:25.893Z,100994.94
2023-02-22T15:04:54.796Z,100994.31
2023-02-22T15:07:27.474Z,101001.25
2023-02-22T15:10:26.083Z,101003.91
2023-02-22T15:13:08.749Z,100998.59
2023-02-22T15:15:39.563Z,101002.31
2023-02-22T15:18:27.131Z,100995.94
2023-02-22T15:20:58.195Z,101002.31
2023-02-22T15:23:30.348Z,101001.25
2023-02-22T15:25:58.225Z,100997.78
2023-02-22T15:28:28.969Z,101002.31
2023-02-22T15:31:18.529Z,101005.97
2023-02-22T15:33:47.164Z,101000.00
2023-02-22T15:36:17.570Z,101002.66
2023-02-22T15:38:49.216Z,101002.84
2023-02-22T15:41:22.173Z,101001.41
2023-02-22T15:44:05.436Z,101002.56
2023-02-22T15:46:35.129Z,101014.41
2023-02-22T15:49:20.845Z,101014.59
2023-02-22T15:51:59.123Z,101013.78
2023-02-22T15:54:27.765Z,101008.81
2023-02-22T15:56:56.496Z,101010.84
2023-02-22T15:59:29.623Z,101014.50
2023-02-22T16:01:58.531Z,101020.03
2023-02-22T16:04:29.019Z,101009.56
2023-02-22T16:07:05.138Z,101022.88
2023-02-22T16:09:33.237Z,101017.91
2023-02-22T16:12:22.192Z,101014.63
2023-02-22T16:14:50.399Z,101006.81
2023-02-22T16:17:35.927Z,101011.50
2023-02-22T16:20:32.617Z,101018.66
2023-02-22T16:23:00.715Z,101023.13
2023-02-22T16:25:32.951Z,101027.81
2023-02-22T16:28:03.123Z,101034.16
2023-02-22T16:30:33.129Z,101026.34
2023-02-22T16:33:05.516Z,101025.72
2023-02-22T16:35:35.459Z,101027.53
2023-02-22T16:38:04.513Z,101019.75
2023-02-22T16:40:34.550Z,101033.25
2023-02-22T16:43:02.891Z,101022.78
2023-02-22T16:45:29.797Z,101025.25
2023-02-22T16:47:56.610Z,101025.44
2023-02-22T16:50:23.878Z,101034.06
2023-02-22T16:52:55.160Z,101032.59
2023-02-22T16:55:22.415Z,101028.28
2023-02-22T16:57:49.927Z,101035.44
2023-02-22T17:00:19.560Z,101038.09
2023-02-22T17:02:46.311Z,101047.06
2023-02-22T17:05:15.263Z,101044.59
2023-02-22T17:07:42.460Z,101050.28
2023-02-22T17:10:15.420Z,101054.78
2023-02-22T17:12:44.480Z,101061.09
2023-02-22T17:15:20.584Z,101063.75
2023-02-22T17:17:47.439Z,101061.28
2023-02-22T17:20:14.163Z,101068.44
2023-02-22T17:22:40.919Z,101063.09
2023-02-22T17:25:21.920Z,101067.81
2023-02-22T17:27:48.846Z,101067.16
2023-02-22T17:30:17.033Z,101063.00
2023-02-22T17:32:44.213Z,101063.22
2023-02-22T17:35:10.980Z,101068.53
2023-02-22T17:37:38.313Z,101068.06
2023-02-22T17:40:06.131Z,101063.72
2023-02-22T17:42:34.302Z,101066.56
2023-02-22T17:45:00.979Z,101073.72
2023-02-22T17:47:27.724Z,101066.78
2023-02-22T17:49:54.424Z,101074.75
2023-02-22T17:52:21.166Z,101084.56
2023-02-22T17:54:47.938Z,101087.38
2023-02-22T17:57:16.652Z,101085.72
2023-02-22T17:59:44.775Z,101092.88
2023-02-22T18:02:11.517Z,101086.72
2023-02-22T18:04:40.376Z,101089.56
2023-02-22T18:07:07.269Z,101090.75
2023-02-22T18:09:38.293Z,101093.59
2023-02-22T18:12:05.329Z,101092.09
2023-02-22T18:14:32.015Z,101092.09
2023-02-22T18:17:01.704Z,101092.31
2023-02-22T18:19:29.237Z,101102.13
2023-02-22T18:22:00.276Z,101095.97
2023-02-22T18:24:27.015Z,101100.47
2023-02-22T18:26:53.833Z,101106.94
2023-02-22T18:29:20.591Z,101106.94
2023-02-22T18:31:47.289Z,101109.59
2023-02-22T18:34:16.024Z,101106.13
2023-02-22T18:36:44.538Z,101110.44
2023-02-22T18:39:11.788Z,101107.94
2023-02-22T18:41:38.951Z,101114.91
2023-02-22T18:44:06.565Z,101112.25
2023-02-22T18:46:33.342Z,101107.31
2023-02-22T18:49:00.145Z,101111.59
2023-02-22T18:51:28.840Z,101112.63
2023-02-22T18:54:00.412Z,101111.81
2023-02-22T18:56:31.081Z,101108.50
2023-02-22T18:58:59.691Z,101107.66
2023-02-22T19:01:27.145Z,101105.19
2023-02-22T19:03:54.124Z,101102.50
2023-02-22T19:06:23.507Z,101107.19
2023-02-22T19:08:51.861Z,101103.50
2023-02-22T19:11:21.998Z,101114.34
2023-02-22T19:13:51.943Z,101115.53
2023-02-22T19:16:22.602Z,101110.38
2023-02-22T19:18:52.360Z,101105.72
2023-02-22T19:21:20.220Z,101112.84
2023-02-22T19:23:48.642Z,101120.00
2023-02-22T19:26:30.924Z,101115.53
2023-02-22T19:28:59.693Z,101117.34
2023-02-22T19:31:31.302Z,101118.00
2023-02-22T19:34:01.358Z,101112.69
2023-02-22T19:36:30.367Z,101120.84
2023-02-22T19:39:02.674Z,101124.16
2023-02-22T19:41:32.279Z,101121.50
2023-02-22T19:43:59.768Z,101117.81
2023-02-22T19:46:26.741Z,101123.94
2023-02-22T19:48:55.383Z,101120.47
2023-02-22T19:51:25.505Z,101121.28
2023-02-22T19:53:53.551Z,101115.16
2023-02-22T19:56:27.091Z,101121.28
2023-02-22T19:58:57.605Z,101115.16
2023-02-22T20:01:26.057Z,101122.31
2023-02-22T20:03:55.242Z,101125.16
2023-02-22T20:06:26.511Z,101119.66
2023-02-22T20:08:55.138Z,101122.31
2023-02-22T20:11:22.737Z,101131.28
2023-02-22T20:13:52.738Z,101126.16
2023-02-22T20:16:21.468Z,101125.16
2023-02-22T20:18:49.031Z,101135.78
2023-02-22T20:21:20.474Z,101133.28
2023-02-22T20:23:48.156Z,101131.63
2023-02-22T20:26:17.364Z,101135.13
2023-02-22T20:28:44.404Z,101134.28
2023-02-22T20:31:13.865Z,101129.97
2023-02-22T20:33:42.808Z,101137.94
2023-02-22T20:36:13.148Z,101151.25
2023-02-22T20:38:40.329Z,101143.44
2023-02-22T20:41:08.136Z,101147.94
2023-02-22T20:43:35.650Z,101147.94
2023-02-22T20:46:02.538Z,101148.75
2023-02-22T20:48:30.093Z,101154.06
2023-02-22T20:51:06.848Z,101153.28
2023-02-22T20:53:34.535Z,101151.59
2023-02-22T20:56:01.662Z,101165.72
2023-02-22T20:58:29.324Z,101157.75
2023-02-22T21:00:56.089Z,101162.03
2023-02-22T21:03:23.006Z,101161.88
2023-02-22T21:05:49.821Z,101167.19
2023-02-22T21:08:17.978Z,101165.53
2023-02-22T21:10:47.256Z,101166.56
2023-02-22T21:13:14.614Z,101160.22
2023-02-22T21:15:44.007Z,101167.34
2023-02-22T21:18:13.482Z,101164.91
2023-02-22T21:20:42.780Z,101166.88
2023-02-22T21:23:19.608Z,101170.53
2023-02-22T21:25:53.915Z,101166.88
2023-02-22T21:28:20.859Z,101161.75
2023-02-22T21:30:47.743Z,101164.56
2023-02-22T21:33:17.640Z,101160.09
2023-02-22T21:35:47.230Z,101161.75
2023-02-22T21:38:17.368Z,101160.09
2023-02-22T21:40:46.477Z,101159.25
2023-02-22T21:43:25.147Z,101161.91
2023-02-22T21:45:51.904Z,101158.44
2023-02-22T21:48:18.662Z,101164.41
2023-02-22T21:50:45.499Z,101164.56
2023-02-22T21:53:12.842Z,101160.09
2023-02-22T21:55:44.276Z,101159.91
2023-02-22T21:58:16.180Z,101152.94
2023-02-22T22:00:44.581Z,101162.75
2023-02-22T22:03:17.131Z,101160.28
2023-02-22T22:05:46.161Z,101163.75
2023-02-22T22:08:19.454Z,101159.47
2023-02-22T22:10:51.520Z,101158.63
2023-02-22T22:13:19.961Z,101155.97
2023-02-22T22:15:46.743Z,101151.66
2023-02-22T22:18:13.642Z,101161.28
2023-02-22T22:20:40.396Z,101159.63
2023-02-22T22:23:07.632Z,101154.31
2023-02-22T22:25:38.269Z,101163.28
2023-02-22T22:28:07.603Z,101158.78
2023-02-22T22:30:37.099Z,101164.94
2023-02-22T22:33:07.532Z,101155.47
2023-02-22T22:35:34.241Z,101152.97
2023-02-22T22:38:01.219Z,101158.66
2023-02-22T22:40:28.646Z,101158.84
2023-02-22T22:42:55.718Z,101163.31
2023-02-22T22:45:25.583Z,101166.13
2023-02-22T22:47:53.753Z,101167.13
2023-02-22T22:50:26.399Z,101163.03
2023-02-22T22:52:55.510Z,101166.00
2023-02-22T22:55:24.307Z,101161.88
2023-02-22T22:57:54.127Z,101167.16
2023-02-22T23:00:37.757Z,101170.00
2023-02-22T23:03:07.071Z,101174.81
2023-02-22T23:05:46.403Z,101168.03
2023-02-22T23:08:13.326Z,101165.53
2023-02-22T23:10:41.215Z,101172.84
2023-02-22T23:13:15.584Z,101165.88
2023-02-22T23:15:43.358Z,101168.38
2023-02-22T23:18:12.453Z,101171.19
2023-02-22T23:20:39.236Z,101162.59
2023-02-22T23:23:06.265Z,101166.88
2023-02-22T23:25:33.608Z,101162.75
2023-02-22T23:28:00.734Z,101167.41
2023-02-22T23:30:27.671Z,101169.41
2023-02-22T23:32:54.429Z,101172.25
2023-02-22T23:35:22.712Z,101161.78
2023-02-22T23:37:57.952Z,101164.59
2023-02-22T23:40:25.994Z,101170.09
2023-02-22T23:42:56.506Z,101165.78
2023-02-22T23:45:24.442Z,101173.94
2023-02-22T23:47:54.789Z,101174.09
2023-02-22T23:50:25.787Z,101167.13
2023-02-22T23:52:58.476Z,101172.44
2023-02-22T23:55:26.449Z,101169.94
